Time;durP1;ratioP1;P1;durP2;ratioP2;P2;SDS_P1;SDS_P2;PMS_P1;PMS_P2;Temp;Humidity;BMP_temperature;BMP_pressure;BME280_temperature;BME280_humidity;BME280_pressure;Samples;Min_cycle;Max_cycle;Signal;HPM_P1;HPM_P2
2021/10/12 00:00:42;;;;;;;47.63;29.50;;;282.30;2278.40;;;;;;5054161;28;20462;-79
2021/10/12 00:03:08;;;;;;;47.45;32.45;;;282.30;2278.40;;;;;;5054478;28;20025;-77
2021/10/12 00:05:34;;;;;;;47.35;32.33;;;282.40;2278.40;;;;;;5078293;28;20486;-77
2021/10/12 00:08:00;;;;;;;53.70;32.38;;;282.30;2278.40;;;;;;5079127;28;20032;-79
2021/10/12 00:10:26;;;;;;;45.55;30.55;;;282.30;2278.40;;;;;;5077062;28;20040;-77
2021/10/12 00:12:51;;;;;;;43.65;28.80;;;282.40;2278.40;;;;;;5071141;28;20032;-76
2021/10/12 00:15:17;;;;;;;40.58;29.83;;;282.40;2278.40;;;;;;5079894;28;20052;-77
2021/10/12 00:17:43;;;;;;;43.53;29.90;;;282.50;2278.40;;;;;;5082299;28;20041;-76
2021/10/12 00:20:09;;;;;;;45.70;29.33;;;282.50;2278.40;;;;;;5080173;28;20040;-77
2021/10/12 00:22:35;;;;;;;44.10;30.02;;;282.50;2278.40;;;;;;5053674;28;20033;-77
2021/10/12 00:25:06;;;;;;;47.35;30.05;;;282.40;2278.40;;;;;;5070688;28;20021;-77
2021/10/12 00:27:32;;;;;;;59.03;33.63;;;282.30;2278.40;;;;;;5071951;28;20024;-78
2021/10/12 00:29:58;;;;;;;43.90;29.98;;;282.30;2278.40;;;;;;5080941;28;20025;-77
2021/10/12 00:32:23;;;;;;;43.38;29.00;;;282.10;2278.40;;;;;;5060337;28;20036;-78
2021/10/12 00:34:49;;;;;;;44.17;30.13;;;282.30;2278.40;;;;;;5078974;28;20029;-78
2021/10/12 00:37:15;;;;;;;42.60;29.95;;;282.30;2278.40;;;;;;5052843;28;20028;-77
2021/10/12 00:39:41;;;;;;;45.70;28.77;;;282.20;2278.40;;;;;;5060540;28;20027;-76
2021/10/12 00:42:07;;;;;;;40.42;26.58;;;282.20;2278.40;;;;;;5072463;28;20017;-75
2021/10/12 00:44:35;;;;;;;41.78;27.55;;;282.20;2278.40;;;;;;5054687;28;20029;-77
2021/10/12 00:47:01;;;;;;;44.38;29.45;;;282.20;2278.40;;;;;;5071116;28;20495;-77
2021/10/12 00:49:27;;;;;;;43.92;28.60;;;282.20;2278.40;;;;;;5052746;28;20547;-76
2021/10/12 00:51:53;;;;;;;47.17;30.65;;;282.10;2278.40;;;;;;5055129;28;20131;-78
2021/10/12 00:54:19;;;;;;;43.00;29.15;;;282.10;2278.40;;;;;;5070766;28;20029;-76
2021/10/12 00:56:46;;;;;;;45.92;30.88;;;282.10;2278.40;;;;;;5054863;28;20024;-76
2021/10/12 00:59:12;;;;;;;45.80;30.13;;;282.10;2278.40;;;;;;5080272;28;20032;-77
2021/10/12 01:01:38;;;;;;;46.10;29.23;;;282.10;2278.40;;;;;;5066996;28;20031;-78
2021/10/12 01:04:09;;;;;;;44.67;30.88;;;282.10;2278.40;;;;;;5080640;28;20020;-77
2021/10/12 01:06:35;;;;;;;47.38;30.55;;;282.20;2278.40;;;;;;5049276;28;20017;-77
2021/10/12 01:09:01;;;;;;;45.30;32.13;;;282.30;2278.40;;;;;;5061204;28;20110;-77
2021/10/12 01:11:27;;;;;;;46.50;31.02;;;282.30;2278.40;;;;;;5051701;28;20036;-77
2021/10/12 01:13:54;;;;;;;50.78;32.25;;;282.30;2278.40;;;;;;5077081;28;20032;-76
2021/10/12 01:16:20;;;;;;;45.42;31.77;;;282.20;2278.40;;;;;;5077430;28;20097;-79
2021/10/12 01:19:06;;;;;;;50.55;33.65;;;282.30;2278.40;;;;;;5059636;28;20039;-78
2021/10/12 01:21:39;;;;;;;49.85;33.15;;;282.30;2278.40;;;;;;5072321;28;20021;-77
2021/10/12 01:24:05;;;;;;;51.70;33.70;;;282.30;2278.40;;;;;;5077439;28;20384;-78
2021/10/12 01:26:33;;;;;;;50.92;31.05;;;282.30;2278.40;;;;;;5071182;28;20039;-79
2021/10/12 01:28:59;;;;;;;51.85;33.60;;;282.30;2278.40;;;;;;5058419;28;20028;-80
2021/10/12 01:31:27;;;;;;;54.20;33.05;;;282.30;2278.40;;;;;;5053137;28;20379;-77
2021/10/12 01:33:53;;;;;;;44.10;29.90;;;282.30;2278.40;;;;;;5070984;28;20054;-78
2021/10/12 01:36:19;;;;;;;45.33;30.27;;;282.20;2278.40;;;;;;5067434;28;20226;-77
2021/10/12 01:38:44;;;;;;;45.97;31.88;;;282.30;2278.40;;;;;;5074540;28;20111;-78
2021/10/12 01:41:11;;;;;;;50.33;30.75;;;282.30;2278.40;;;;;;5074794;28;20024;-79
2021/10/12 01:43:38;;;;;;;45.35;30.35;;;282.30;2278.40;;;;;;5057531;28;20031;-79
2021/10/12 01:46:05;;;;;;;52.25;32.17;;;282.20;2278.40;;;;;;5058327;28;20024;-77
2021/10/12 01:48:31;;;;;;;46.10;29.38;;;282.20;2278.40;;;;;;5075537;28;20522;-76
2021/10/12 01:50:57;;;;;;;48.60;30.00;;;282.20;2278.40;;;;;;5046681;28;20024;-77
2021/10/12 01:53:22;;;;;;;55.35;31.50;;;282.10;2278.40;;;;;;5076995;28;20036;-77
2021/10/12 01:55:48;;;;;;;49.10;28.65;;;282.10;2278.40;;;;;;5055400;28;20024;-76
2021/10/12 01:58:14;;;;;;;48.45;31.95;;;282.10;2278.40;;;;;;5057593;28;20028;-77
2021/10/12 02:00:40;;;;;;;51.17;30.45;;;282.10;2278.40;;;;;;5058775;28;20024;-77
2021/10/12 02:03:05;;;;;;;40.47;27.30;;;282.10;2278.40;;;;;;5057830;28;20029;-78
2021/10/12 02:05:31;;;;;;;46.97;29.25;;;282.10;2278.40;;;;;;5076719;28;20100;-77
2021/10/12 02:07:57;;;;;;;41.63;27.50;;;282.10;2278.40;;;;;;5074023;28;20074;-78
2021/10/12 02:10:23;;;;;;;46.33;27.80;;;282.10;2278.40;;;;;;5075797;28;20526;-77
2021/10/12 02:12:50;;;;;;;47.35;29.10;;;282.10;2278.40;;;;;;5070298;28;20028;-78
2021/10/12 02:15:16;;;;;;;44.33;29.45;;;282.10;2278.40;;;;;;5054703;28;20520;-77
2021/10/12 02:17:42;;;;;;;51.53;30.02;;;282.00;2278.40;;;;;;5075358;28;20033;-78
2021/10/12 02:20:08;;;;;;;49.00;29.92;;;282.10;2278.40;;;;;;5055591;28;20104;-77
2021/10/12 02:22:34;;;;;;;48.33;29.08;;;282.10;2278.40;;;;;;5057033;28;20028;-76
2021/10/12 02:25:00;;;;;;;44.42;28.95;;;282.10;2278.40;;;;;;5057844;28;20052;-76
2021/10/12 02:27:26;;;;;;;48.80;30.40;;;282.10;2278.40;;;;;;5056190;28;20033;-77
2021/10/12 02:29:52;;;;;;;50.55;30.52;;;282.10;2278.40;;;;;;5076272;28;20069;-77
2021/10/12 02:32:19;;;;;;;50.63;31.38;;;282.10;2278.40;;;;;;5073462;28;20028;-77
2021/10/12 02:34:44;;;;;;;44.80;28.90;;;282.20;2278.40;;;;;;5073812;28;20029;-78
2021/10/12 02:37:10;;;;;;;47.58;30.63;;;282.10;2278.40;;;;;;5055483;28;20068;-78
2021/10/12 02:39:37;;;;;;;45.95;30.92;;;282.20;2278.40;;;;;;5065395;28;20024;-80
2021/10/12 02:42:02;;;;;;;47.60;31.42;;;282.10;2278.40;;;;;;5054811;28;20105;-77
2021/10/12 02:44:28;;;;;;;44.63;27.05;;;282.10;2278.40;;;;;;5073437;28;20531;-78
2021/10/12 02:46:54;;;;;;;44.33;27.58;;;282.10;2278.40;;;;;;5072549;28;20056;-77
2021/10/12 02:49:20;;;;;;;45.58;28.10;;;282.10;2278.40;;;;;;5060953;28;20414;-78
2021/10/12 02:51:46;;;;;;;45.42;27.08;;;282.10;2278.40;;;;;;5073532;28;20085;-77
2021/10/12 02:54:11;;;;;;;43.53;26.48;;;282.10;2278.40;;;;;;5059191;28;20034;-76
2021/10/12 02:56:37;;;;;;;47.10;25.35;;;282.10;2278.40;;;;;;5055650;28;20435;-77
2021/10/12 02:59:03;;;;;;;40.20;25.10;;;282.00;2278.40;;;;;;5073086;28;20024;-76
2021/10/12 03:01:29;;;;;;;43.40;25.55;;;282.10;2278.40;;;;;;5073606;28;20098;-77
2021/10/12 03:03:55;;;;;;;45.47;28.05;;;282.10;2278.40;;;;;;5054944;28;20356;-77
2021/10/12 03:06:20;;;;;;;45.67;27.45;;;282.10;2278.40;;;;;;5073372;28;20028;-77
2021/10/12 03:08:46;;;;;;;45.00;27.67;;;282.10;2278.40;;;;;;5066599;28;20037;-77
2021/10/12 03:11:12;;;;;;;52.97;28.58;;;282.10;2278.40;;;;;;5072722;28;20036;-77
2021/10/12 03:13:38;;;;;;;47.80;29.02;;;282.10;2278.40;;;;;;5073246;28;20103;-77
2021/10/12 03:16:04;;;;;;;45.50;28.67;;;282.10;2278.40;;;;;;5072521;28;20047;-76
2021/10/12 03:18:32;;;;;;;45.63;28.00;;;282.00;2278.40;;;;;;5072996;28;20032;-77
2021/10/12 03:20:58;;;;;;;39.72;25.30;;;282.30;2278.40;;;;;;5068881;28;20028;-77
2021/10/12 03:23:24;;;;;;;46.08;27.08;;;282.10;2278.40;;;;;;5056449;28;20020;-77
2021/10/12 03:25:49;;;;;;;43.90;27.67;;;282.10;2278.40;;;;;;5079133;28;20029;-75
2021/10/12 03:28:15;;;;;;;46.65;27.95;;;282.10;2278.40;;;;;;5071719;28;20051;-76
2021/10/12 03:30:41;;;;;;;43.40;26.10;;;282.10;2278.40;;;;;;5077733;28;20391;-76
2021/10/12 03:33:06;;;;;;;49.20;27.70;;;282.10;2278.40;;;;;;5077970;28;20038;-76
2021/10/12 03:35:35;;;;;;;47.10;28.40;;;282.10;2278.40;;;;;;5065418;28;20101;-77
2021/10/12 03:38:01;;;;;;;42.88;26.63;;;282.10;2278.40;;;;;;5072386;28;20016;-78
2021/10/12 03:40:27;;;;;;;43.47;29.13;;;282.20;2278.40;;;;;;5058825;28;20078;-77
2021/10/12 03:42:53;;;;;;;44.22;27.35;;;282.10;2278.40;;;;;;5062685;28;20119;-77
2021/10/12 03:45:19;;;;;;;51.63;30.02;;;282.10;2278.40;;;;;;5071225;28;20032;-76
2021/10/12 03:47:45;;;;;;;48.72;28.90;;;282.10;2278.40;;;;;;5053558;28;20041;-76
2021/10/12 03:50:10;;;;;;;49.95;29.30;;;282.10;2278.40;;;;;;5072285;28;20376;-76
2021/10/12 03:52:36;;;;;;;53.50;31.42;;;282.10;2278.40;;;;;;5070898;28;20040;-77
2021/10/12 03:55:03;;;;;;;53.90;31.88;;;282.10;2278.40;;;;;;5072372;28;20491;-76
2021/10/12 03:57:29;;;;;;;59.10;31.00;;;282.00;2278.40;;;;;;5071212;28;20036;-76
2021/10/12 03:59:54;;;;;;;50.65;31.88;;;282.10;2278.40;;;;;;5054929;28;20032;-76
2021/10/12 04:02:20;;;;;;;55.85;33.33;;;282.10;2278.40;;;;;;5066528;28;20118;-80
2021/10/12 04:04:46;;;;;;;60.60;34.83;;;282.10;2278.40;;;;;;5071782;28;20024;-76
2021/10/12 04:07:11;;;;;;;59.08;33.08;;;282.10;2278.40;;;;;;5072290;28;20033;-77
2021/10/12 04:09:37;;;;;;;65.55;37.95;;;282.10;2278.40;;;;;;5067089;28;20454;-77
2021/10/12 04:12:03;;;;;;;64.95;38.08;;;282.10;2278.40;;;;;;5068284;28;20042;-76
2021/10/12 04:14:29;;;;;;;57.15;36.88;;;282.10;2278.40;;;;;;5071666;28;20113;-76
2021/10/12 04:16:54;;;;;;;59.80;35.75;;;282.20;2278.40;;;;;;5071548;28;20140;-76
2021/10/12 04:19:20;;;;;;;65.05;38.70;;;282.10;2278.40;;;;;;5064868;28;20475;-76
2021/10/12 04:21:46;;;;;;;62.55;38.38;;;282.10;2278.40;;;;;;5079353;28;20024;-76
2021/10/12 04:24:12;;;;;;;73.53;42.25;;;282.20;2278.40;;;;;;5085046;28;20016;-76
2021/10/12 04:26:39;;;;;;;75.22;43.65;;;282.10;2278.40;;;;;;5080289;28;20028;-77
2021/10/12 04:29:05;;;;;;;76.20;47.72;;;282.10;2278.40;;;;;;5083040;28;20024;-77
2021/10/12 04:31:32;;;;;;;81.25;47.53;;;282.10;2278.40;;;;;;5056209;28;20024;-77
2021/10/12 04:33:58;;;;;;;75.60;46.00;;;282.10;2278.40;;;;;;5071975;28;20020;-77
2021/10/12 04:36:23;;;;;;;74.22;45.88;;;282.10;2278.40;;;;;;5071293;28;20024;-77
2021/10/12 04:38:49;;;;;;;80.05;45.17;;;282.10;2278.40;;;;;;5070372;28;20066;-76
2021/10/12 04:41:15;;;;;;;72.38;43.03;;;282.00;2278.40;;;;;;5070068;28;20105;-75
2021/10/12 04:43:41;;;;;;;71.82;46.97;;;282.00;2278.40;;;;;;5071513;28;20024;-75
2021/10/12 04:46:07;;;;;;;68.50;46.72;;;282.10;2278.40;;;;;;5071033;28;20031;-77
2021/10/12 04:48:35;;;;;;;73.85;46.55;;;281.90;2278.40;;;;;;5081135;28;20036;-75
2021/10/12 04:51:01;;;;;;;72.78;46.03;;;282.00;2278.40;;;;;;5064163;28;20395;-76
2021/10/12 04:53:27;;;;;;;71.63;46.42;;;282.00;2278.40;;;;;;5078506;28;20039;-76
2021/10/12 04:55:52;;;;;;;72.38;46.45;;;281.90;2278.40;;;;;;5076902;28;20024;-75
2021/10/12 04:58:18;;;;;;;74.95;46.65;;;281.90;2278.40;;;;;;5052903;28;20075;-77
2021/10/12 05:00:44;;;;;;;70.07;47.00;;;282.00;2278.40;;;;;;5084984;28;20055;-76
2021/10/12 05:03:10;;;;;;;71.82;46.88;;;282.00;2278.40;;;;;;5074240;28;20551;-77
2021/10/12 05:05:36;;;;;;;75.97;45.75;;;282.00;2278.40;;;;;;5053363;28;20491;-76
2021/10/12 05:08:02;;;;;;;67.38;43.15;;;282.00;2278.40;;;;;;5055565;28;20031;-76
2021/10/12 05:10:28;;;;;;;66.07;46.45;;;282.00;2278.40;;;;;;5083986;28;20030;-77
2021/10/12 05:12:54;;;;;;;75.47;46.15;;;282.10;2278.40;;;;;;5069900;28;20067;-76
2021/10/12 05:15:29;;;;;;;68.18;46.55;;;282.10;2278.40;;;;;;5069577;28;20044;-75
2021/10/12 05:17:56;;;;;;;62.50;43.67;;;282.10;2278.40;;;;;;5066776;28;20142;-76
2021/10/12 05:20:22;;;;;;;65.10;42.20;;;282.10;2278.40;;;;;;5056722;28;20081;-75
2021/10/12 05:22:48;;;;;;;59.50;42.03;;;282.10;2278.40;;;;;;5065656;28;20021;-75
2021/10/12 05:25:15;;;;;;;64.35;40.75;;;282.00;2278.40;;;;;;5074703;28;20078;-75
2021/10/12 05:27:41;;;;;;;65.15;42.00;;;282.00;2278.40;;;;;;5065743;28;20032;-75
2021/10/12 05:30:10;;;;;;;65.70;43.20;;;281.90;2278.40;;;;;;5062197;28;20025;-75
2021/10/12 05:32:37;;;;;;;63.65;43.17;;;282.00;2278.40;;;;;;5074722;28;20050;-76
2021/10/12 05:35:05;;;;;;;62.95;43.30;;;282.10;2278.40;;;;;;5074660;28;20032;-76
2021/10/12 05:37:31;;;;;;;62.30;42.53;;;282.00;2278.40;;;;;;5074948;28;20040;-76
2021/10/12 05:39:57;;;;;;;61.50;42.90;;;282.00;2278.40;;;;;;5074468;28;20101;-76
2021/10/12 05:42:23;;;;;;;65.57;42.03;;;282.10;2278.40;;;;;;5074358;28;20591;-76
2021/10/12 05:44:49;;;;;;;60.85;40.55;;;282.10;2278.40;;;;;;5067247;28;20533;-76
2021/10/12 05:47:14;;;;;;;61.33;40.75;;;282.10;2278.40;;;;;;5056094;28;20068;-76
2021/10/12 05:49:41;;;;;;;64.70;45.50;;;282.10;2278.40;;;;;;5059318;28;20119;-76
2021/10/12 05:52:08;;;;;;;64.22;45.45;;;282.10;2278.40;;;;;;5078944;28;20024;-75
2021/10/12 05:54:39;;;;;;;59.20;43.60;;;282.10;2278.40;;;;;;5077290;28;20016;-76
2021/10/12 05:59:30;;;;;;;70.43;46.33;;;282.10;2278.40;;;;;;5066336;28;20025;-75
2021/10/12 06:01:56;;;;;;;60.67;42.20;;;282.10;2278.40;;;;;;5055832;28;20043;-76
2021/10/12 06:04:22;;;;;;;61.50;41.78;;;282.10;2278.40;;;;;;5069480;28;20028;-76
2021/10/12 06:06:47;;;;;;;70.32;46.72;;;282.10;2278.40;;;;;;5072823;28;20099;-77
2021/10/12 06:09:13;;;;;;;66.07;45.33;;;282.10;2278.40;;;;;;5057341;28;20033;-77
2021/10/12 06:11:39;;;;;;;69.65;44.75;;;282.00;2278.40;;;;;;5069232;28;20052;-76
2021/10/12 06:14:05;;;;;;;64.97;43.63;;;281.90;2278.40;;;;;;5073207;28;20107;-76
2021/10/12 06:16:30;;;;;;;67.18;45.47;;;282.00;2278.40;;;;;;5058527;28;20111;-77
2021/10/12 06:18:56;;;;;;;63.90;44.22;;;281.90;2278.40;;;;;;5065618;28;20043;-76
2021/10/12 06:21:23;;;;;;;57.28;42.22;;;281.90;2278.40;;;;;;5075835;28;20028;-76
2021/10/12 06:23:50;;;;;;;63.22;42.63;;;282.10;2278.40;;;;;;5056332;28;20416;-75
2021/10/12 06:26:16;;;;;;;66.00;46.67;;;282.00;2278.40;;;;;;5073841;28;20028;-76
2021/10/12 06:28:41;;;;;;;63.53;42.75;;;282.00;2278.40;;;;;;5056021;28;20033;-76
2021/10/12 06:31:07;;;;;;;57.30;40.97;;;282.00;2278.40;;;;;;5066259;28;20033;-77
2021/10/12 06:33:34;;;;;;;61.05;42.70;;;282.00;2278.40;;;;;;5073463;28;20467;-75
2021/10/12 06:36:00;;;;;;;58.03;39.22;;;282.10;2278.40;;;;;;5063723;28;20514;-77
2021/10/12 06:38:25;;;;;;;62.67;42.33;;;282.00;2278.40;;;;;;5073745;28;20119;-77
2021/10/12 06:40:51;;;;;;;57.92;38.58;;;282.10;2278.40;;;;;;5058804;28;20020;-77
2021/10/12 06:43:17;;;;;;;56.25;39.35;;;282.30;2278.40;;;;;;5055769;28;20028;-78
2021/10/12 06:45:43;;;;;;;51.08;37.58;;;282.30;2278.40;;;;;;5080719;28;20055;-77
2021/10/12 06:48:08;;;;;;;48.92;35.80;;;282.30;2278.40;;;;;;5077127;28;20055;-77
2021/10/12 06:50:35;;;;;;;51.42;35.55;;;282.30;2278.40;;;;;;5082820;28;20701;-77
2021/10/12 06:53:00;;;;;;;56.38;39.78;;;282.30;2278.40;;;;;;5084858;28;20032;-77
2021/10/12 06:55:27;;;;;;;46.45;33.20;;;282.30;2278.40;;;;;;5074221;28;20032;-77
2021/10/12 06:57:52;;;;;;;49.05;36.60;;;282.30;2278.40;;;;;;5083122;28;20016;-77
2021/10/12 07:00:18;;;;;;;47.58;34.20;;;282.40;2278.40;;;;;;5059680;28;20036;-76
2021/10/12 07:02:46;;;;;;;51.08;36.17;;;282.50;2278.40;;;;;;5084481;28;20017;-77
2021/10/12 07:05:12;;;;;;;48.08;32.97;;;282.50;2278.40;;;;;;5073118;28;20031;-76
2021/10/12 07:07:38;;;;;;;47.97;34.03;;;282.40;2278.40;;;;;;5077679;28;20375;-77
2021/10/12 07:10:06;;;;;;;50.85;33.88;;;282.40;2278.40;;;;;;5072901;28;20035;-76
2021/10/12 07:12:32;;;;;;;50.10;36.80;;;282.50;2278.40;;;;;;5076385;28;20081;-76
2021/10/12 07:14:59;;;;;;;49.35;38.00;;;307.20;2304.00;;;;;;5049653;28;20028;-77
2021/10/12 07:17:24;;;;;;;55.45;37.38;;;307.20;2304.00;;;;;;5078225;28;20043;-77
2021/10/12 07:19:50;;;;;;;51.72;35.75;;;307.20;2304.00;;;;;;5065625;28;20107;-78
2021/10/12 07:22:17;;;;;;;55.60;38.72;;;307.20;2304.00;;;;;;5063603;28;20021;-77
2021/10/12 07:24:43;;;;;;;50.92;34.53;;;307.20;2304.00;;;;;;5061107;28;20032;-76
2021/10/12 07:27:10;;;;;;;56.63;36.45;;;282.50;2278.40;;;;;;5077572;28;20074;-77
2021/10/12 07:29:36;;;;;;;47.92;35.80;;;307.20;2304.00;;;;;;5071763;28;20064;-77
2021/10/12 07:32:02;;;;;;;52.80;36.65;;;307.20;2304.00;;;;;;5071452;28;20052;-76
2021/10/12 07:34:27;;;;;;;55.88;39.42;;;307.20;2304.00;;;;;;5053642;28;20028;-77
2021/10/12 07:36:53;;;;;;;49.20;36.65;;;307.20;2304.00;;;;;;5055735;28;20020;-77
2021/10/12 07:39:19;;;;;;;48.35;36.35;;;307.20;2304.00;;;;;;5071460;28;20395;-77
2021/10/12 07:41:45;;;;;;;49.05;35.28;;;307.20;2304.00;;;;;;5064020;28;20036;-76
2021/10/12 07:44:10;;;;;;;52.65;36.63;;;307.20;2304.00;;;;;;5076671;28;20421;-76
2021/10/12 07:46:36;;;;;;;49.03;34.85;;;307.30;2304.00;;;;;;5070508;28;20494;-76
2021/10/12 07:49:02;;;;;;;46.97;35.60;;;307.40;2304.00;;;;;;5072453;28;20751;-77
2021/10/12 07:51:29;;;;;;;43.50;33.15;;;307.50;2304.00;;;;;;5062365;28;20111;-76
2021/10/12 07:53:59;;;;;;;52.92;36.13;;;307.40;2304.00;;;;;;5079875;28;20020;-76
2021/10/12 07:56:36;;;;;;;46.08;35.00;;;307.40;2304.00;;;;;;5054982;28;20490;-77
2021/10/12 07:59:04;;;;;;;48.53;35.33;;;307.50;2304.00;;;;;;5055407;28;20036;-77
2021/10/12 08:01:30;;;;;;;50.58;37.00;;;307.50;2304.00;;;;;;5068961;28;20021;-77
2021/10/12 08:03:56;;;;;;;48.15;36.15;;;307.50;2304.00;;;;;;5055201;28;20036;-76
2021/10/12 08:06:22;;;;;;;51.97;36.60;;;307.50;2304.00;;;;;;5055305;28;20494;-76
2021/10/12 08:08:47;;;;;;;48.50;35.95;;;307.40;2304.00;;;;;;5076320;28;20028;-76
2021/10/12 08:11:16;;;;;;;48.47;35.88;;;307.50;2304.00;;;;;;5055056;28;20459;-77
2021/10/12 08:13:42;;;;;;;47.83;35.20;;;307.60;2304.00;;;;;;5079376;28;20032;-77
2021/10/12 08:16:09;;;;;;;49.03;35.58;;;307.60;2304.00;;;;;;5080680;28;20058;-77
2021/10/12 08:18:36;;;;;;;52.05;35.63;;;307.60;2304.00;;;;;;5082633;28;20028;-77
2021/10/12 08:21:02;;;;;;;44.67;33.90;;;307.90;2304.00;;;;;;5068022;28;20024;-77
2021/10/12 08:23:28;;;;;;;45.03;33.33;;;308.00;2304.00;;;;;;5071341;28;20078;-77
2021/10/12 08:25:54;;;;;;;46.97;33.40;;;308.10;2304.00;;;;;;5072747;28;20021;-79
2021/10/12 08:28:20;;;;;;;41.63;31.83;;;332.90;2329.60;;;;;;5072758;28;20027;-75
2021/10/12 08:30:46;;;;;;;52.97;35.58;;;332.90;2329.60;;;;;;5075190;28;20028;-77
2021/10/12 08:33:12;;;;;;;55.83;36.35;;;332.90;2329.60;;;;;;5055970;28;20028;-75
2021/10/12 08:35:37;;;;;;;46.30;34.38;;;333.10;2329.60;;;;;;5052435;28;20475;-74
2021/10/12 08:38:03;;;;;;;49.20;33.97;;;333.10;2329.60;;;;;;5053124;28;20055;-75
2021/10/12 08:40:31;;;;;;;45.13;33.80;;;333.20;2329.60;;;;;;5054007;28;20016;-75
2021/10/12 08:42:58;;;;;;;55.17;35.65;;;333.30;2329.60;;;;;;5074912;28;20024;-76
2021/10/12 08:45:24;;;;;;;52.38;38.38;;;333.30;2329.60;;;;;;5052769;28;20032;-77
2021/10/12 08:47:51;;;;;;;47.17;35.70;;;333.30;2329.60;;;;;;5071351;28;20021;-75
2021/10/12 08:50:21;;;;;;;50.33;34.97;;;333.30;2329.60;;;;;;5053012;28;20024;-76
2021/10/12 08:52:47;;;;;;;43.13;32.10;;;333.30;2329.60;;;;;;5070802;28;20089;-75
2021/10/12 08:55:14;;;;;;;46.33;30.90;;;333.20;2329.60;;;;;;5068002;28;20085;-74
2021/10/12 08:57:44;;;;;;;47.85;34.03;;;333.20;2329.60;;;;;;5072131;28;20021;-75
2021/10/12 09:00:11;;;;;;;42.15;32.65;;;333.10;2329.60;;;;;;5054588;28;20024;-75
2021/10/12 09:06:09;;;;;;;37.70;29.30;;;333.20;2329.60;;;;;;5069446;28;20089;-74
2021/10/12 09:08:39;;;;;;;42.05;32.38;;;333.20;2329.60;;;;;;5067075;28;20480;-74
2021/10/12 09:11:21;;;;;;;51.00;35.10;;;333.20;2329.60;;;;;;5059239;28;20032;-75
2021/10/12 09:13:50;;;;;;;47.55;34.13;;;333.30;2329.60;;;;;;5071136;28;20476;-75
2021/10/12 09:16:18;;;;;;;47.30;33.50;;;333.30;2329.60;;;;;;5071466;28;20052;-75
2021/10/12 09:18:50;;;;;;;43.17;32.35;;;333.20;2329.60;;;;;;5068981;28;20024;-74
2021/10/12 09:21:28;;;;;;;50.40;34.05;;;333.30;2329.60;;;;;;5067588;28;20604;-74
2021/10/12 09:24:03;;;;;;;44.72;30.88;;;333.30;2329.60;;;;;;5070239;28;20118;-76
2021/10/12 09:26:33;;;;;;;47.50;32.85;;;333.20;2329.60;;;;;;5065969;28;20017;-76
2021/10/12 09:29:13;;;;;;;46.42;33.78;;;333.20;2329.60;;;;;;5052686;28;20032;-75
2021/10/12 09:31:44;;;;;;;42.95;32.67;;;333.20;2329.60;;;;;;5069744;28;20016;-75
2021/10/12 09:34:12;;;;;;;47.80;35.80;;;333.00;2329.60;;;;;;5051597;28;20036;-75
2021/10/12 09:36:43;;;;;;;44.50;33.80;;;333.00;2329.60;;;;;;5052990;28;20020;-76
2021/10/12 09:39:14;;;;;;;56.03;38.15;;;333.00;2329.60;;;;;;5067626;28;20628;-75
2021/10/12 09:41:45;;;;;;;41.85;32.08;;;333.00;2329.60;;;;;;5063959;28;20017;-75
2021/10/12 09:44:12;;;;;;;59.78;42.28;;;332.90;2329.60;;;;;;5056700;28;20811;-75
2021/10/12 09:46:40;;;;;;;54.00;38.22;;;332.80;2329.60;;;;;;5065002;28;20110;-74
2021/10/12 09:49:14;;;;;;;46.90;35.00;;;332.80;2329.60;;;;;;5067534;28;20027;-75
2021/10/12 09:51:54;;;;;;;46.92;34.05;;;332.80;2329.60;;;;;;5078146;28;20390;-75
2021/10/12 09:54:25;;;;;;;50.13;37.28;;;332.80;2329.60;;;;;;5067003;28;20143;-75
2021/10/12 09:56:51;;;;;;;47.65;35.15;;;332.80;2329.60;;;;;;5073276;28;20031;-75
2021/10/12 09:59:17;;;;;;;53.58;37.42;;;333.00;2329.60;;;;;;5073802;28;20028;-74
2021/10/12 10:01:48;;;;;;;54.00;36.53;;;333.10;2329.60;;;;;;5069772;28;20025;-74
2021/10/12 10:04:19;;;;;;;54.53;39.03;;;333.20;2329.60;;;;;;5048888;28;20421;-74
2021/10/12 10:06:50;;;;;;;68.40;44.90;;;333.30;2329.60;;;;;;5070648;28;20016;-75
2021/10/12 10:09:19;;;;;;;43.70;31.10;;;333.60;2329.60;;;;;;5072544;28;20020;-74
2021/10/12 10:11:45;;;;;;;42.53;33.80;;;358.40;2329.60;;;;;;5073948;28;20039;-74
2021/10/12 10:14:12;;;;;;;46.28;32.75;;;358.40;2329.60;;;;;;5073733;28;20024;-74
2021/10/12 10:16:42;;;;;;;48.78;33.88;;;358.60;2329.60;;;;;;5051975;28;20055;-74
2021/10/12 10:19:21;;;;;;;37.97;29.50;;;358.70;2329.60;;;;;;5056185;28;20029;-74
2021/10/12 10:21:48;;;;;;;39.17;30.27;;;358.60;2329.60;;;;;;5058693;28;20444;-75
2021/10/12 10:24:35;;;;;;;41.78;30.70;;;358.70;2329.60;;;;;;5053859;28;20103;-74
2021/10/12 10:27:00;;;;;;;;;;;358.80;2329.60;;;;;;5052951;28;20541;-74
2021/10/12 10:29:37;;;;;;;39.13;29.93;;;358.80;2329.60;;;;;;5065453;28;19913;-75
2021/10/12 10:32:22;;;;;;;36.45;28.67;;;358.90;2329.60;;;;;;5048888;28;20506;-75
2021/10/12 10:35:04;;;;;;;38.05;29.90;;;358.80;2329.60;;;;;;5051263;28;20231;-74
2021/10/12 10:37:32;;;;;;;44.80;30.00;;;358.90;2329.60;;;;;;5052291;28;20118;-74
2021/10/12 10:40:19;;;;;;;32.15;26.70;;;358.80;2329.60;;;;;;5055827;28;20029;-73
2021/10/12 10:42:58;;;;;;;38.83;27.25;;;358.70;2329.60;;;;;;5066474;28;20025;-74
2021/10/12 10:45:49;;;;;;;38.05;28.20;;;358.70;2329.60;;;;;;5069355;28;20025;-74
2021/10/12 10:48:17;;;;;;;38.38;27.75;;;358.70;2329.60;;;;;;5052053;28;20037;-74
2021/10/12 10:50:43;;;;;;;40.22;28.63;;;358.90;2329.60;;;;;;5052217;28;20025;-74
2021/10/12 10:53:10;;;;;;;38.90;27.55;;;358.90;2329.60;;;;;;5050692;28;20029;-73
2021/10/12 10:55:41;;;;;;;41.65;31.60;;;359.00;2329.60;;;;;;5051199;28;20487;-73
2021/10/12 10:58:15;;;;;;;44.42;29.35;;;358.90;2329.60;;;;;;5048618;28;20135;-73
2021/10/12 11:00:48;;;;;;;41.53;29.88;;;359.00;2329.60;;;;;;5053325;28;20100;-74
2021/10/12 11:03:29;;;;;;;39.85;28.17;;;358.90;2329.60;;;;;;5052984;28;20078;-75
2021/10/12 11:05:56;;;;;;;36.58;27.70;;;358.80;2329.60;;;;;;5051145;28;20112;-76
2021/10/12 11:08:26;;;;;;;37.25;27.10;;;358.80;2329.60;;;;;;5052760;28;20028;-77
2021/10/12 11:10:56;;;;;;;39.50;28.50;;;358.80;2329.60;;;;;;5052363;28;20090;-76
2021/10/12 11:13:32;;;;;;;43.53;28.55;;;358.90;2329.60;;;;;;5057459;28;20033;-77
2021/10/12 11:15:59;;;;;;;43.45;29.67;;;358.80;2329.60;;;;;;5059480;28;20049;-76
2021/10/12 11:18:24;;;;;;;37.28;28.42;;;358.80;2329.60;;;;;;5072580;28;20036;-75
2021/10/12 11:20:54;;;;;;;38.85;28.10;;;358.80;2329.60;;;;;;5054852;28;20365;-76
2021/10/12 11:23:35;;;;;;;38.83;26.63;;;359.00;2329.60;;;;;;5072301;28;20024;-75
2021/10/12 11:26:08;;;;;;;35.10;25.00;;;384.20;2329.60;;;;;;5053849;28;20056;-75
2021/10/12 11:28:43;;;;;;;32.58;25.67;;;384.30;2329.60;;;;;;5072932;28;20056;-75
2021/10/12 11:31:13;;;;;;;45.08;26.50;;;384.20;2329.60;;;;;;5055526;28;20111;-75
2021/10/12 11:33:48;;;;;;;34.60;23.15;;;384.00;2329.60;;;;;;5073094;28;20138;-75
2021/10/12 11:36:19;;;;;;;31.83;23.30;;;359.20;2329.60;;;;;;5053650;28;20027;-75
2021/10/12 11:39:06;;;;;;;29.92;21.40;;;384.50;2329.60;;;;;;5070789;28;20495;-75
2021/10/12 11:41:39;;;;;;;30.88;22.08;;;435.50;2355.20;;;;;;5071423;28;20032;-75
2021/10/12 11:44:19;;;;;;;36.05;24.25;;;460.80;2380.80;;;;;;5054246;28;20382;-75
2021/10/12 11:46:49;;;;;;;28.58;19.88;;;461.30;2380.80;;;;;;5053410;28;20107;-76
2021/10/12 11:49:17;;;;;;;16.88;12.45;;;486.40;2380.80;;;;;;5071742;28;20456;-75
2021/10/12 11:51:45;;;;;;;19.15;13.82;;;461.60;2380.80;;;;;;5052875;28;20028;-75
2021/10/12 11:54:11;;;;;;;16.27;12.52;;;487.00;2380.80;;;;;;5053691;28;20704;-75
2021/10/12 11:56:38;;;;;;;19.90;12.70;;;512.10;2380.80;;;;;;5047862;28;20017;-75
2021/10/12 11:59:09;;;;;;;21.60;12.20;;;512.20;2380.80;;;;;;5051853;28;20089;-75
2021/10/12 12:01:39;;;;;;;17.38;10.32;;;512.00;2380.80;;;;;;5069269;28;20375;-75
2021/10/12 12:04:06;;;;;;;22.58;12.90;;;512.20;2380.80;;;;;;5053852;28;20051;-75
2021/10/12 12:06:42;;;;;;;11.57;9.20;;;512.50;2380.80;;;;;;5051860;28;20040;-75